sensor_id;sensor_type;location;lat;lon;timestamp;P1;durP1;ratioP1;P2;durP2;ratioP2
14007;SDS011;61651;45.508;12.232;2024-01-30T00:02:43;59.00;;;42.97;;
14007;SDS011;61651;45.508;12.232;2024-01-30T00:05:46;61.33;;;42.70;;
14007;SDS011;61651;45.508;12.232;2024-01-30T00:08:48;59.47;;;43.30;;
14007;SDS011;61651;45.508;12.232;2024-01-30T00:11:51;57.13;;;41.03;;
14007;SDS011;61651;45.508;12.232;2024-01-30T00:14:53;63.47;;;45.13;;
14007;SDS011;61651;45.508;12.232;2024-01-30T00:17:55;59.73;;;43.37;;
14007;SDS011;61651;45.508;12.232;2024-01-30T00:20:57;63.67;;;43.70;;
14007;SDS011;61651;45.508;12.232;2024-01-30T00:23:59;63.30;;;43.80;;
14007;SDS011;61651;45.508;12.232;2024-01-30T00:27:03;76.93;;;48.33;;
14007;SDS011;61651;45.508;12.232;2024-01-30T00:30:06;117.87;;;49.60;;
14007;SDS011;61651;45.508;12.232;2024-01-30T00:33:09;103.83;;;49.30;;
14007;SDS011;61651;45.508;12.232;2024-01-30T00:36:11;92.00;;;52.13;;
14007;SDS011;61651;45.508;12.232;2024-01-30T00:39:13;120.30;;;52.27;;
14007;SDS011;61651;45.508;12.232;2024-01-30T00:42:17;85.00;;;50.23;;
14007;SDS011;61651;45.508;12.232;2024-01-30T00:45:19;98.83;;;48.33;;
14007;SDS011;61651;45.508;12.232;2024-01-30T00:48:22;83.40;;;49.67;;
14007;SDS011;61651;45.508;12.232;2024-01-30T00:51:24;75.43;;;46.10;;
14007;SDS011;61651;45.508;12.232;2024-01-30T00:54:26;75.40;;;43.47;;
14007;SDS011;61651;45.508;12.232;2024-01-30T00:57:31;71.87;;;46.03;;
14007;SDS011;61651;45.508;12.232;2024-01-30T01:00:33;73.60;;;43.53;;
14007;SDS011;61651;45.508;12.232;2024-01-30T01:03:35;68.33;;;43.37;;
14007;SDS011;61651;45.508;12.232;2024-01-30T01:06:38;62.50;;;44.67;;
14007;SDS011;61651;45.508;12.232;2024-01-30T01:09:42;66.63;;;43.80;;
14007;SDS011;61651;45.508;12.232;2024-01-30T01:12:46;64.13;;;44.13;;
14007;SDS011;61651;45.508;12.232;2024-01-30T01:15:49;67.57;;;43.90;;
14007;SDS011;61651;45.508;12.232;2024-01-30T01:18:51;53.47;;;41.27;;
14007;SDS011;61651;45.508;12.232;2024-01-30T01:21:53;52.87;;;40.47;;
14007;SDS011;61651;45.508;12.232;2024-01-30T01:24:56;64.17;;;39.87;;
14007;SDS011;61651;45.508;12.232;2024-01-30T01:27:59;61.70;;;40.17;;
14007;SDS011;61651;45.508;12.232;2024-01-30T01:31:01;54.63;;;39.97;;
14007;SDS011;61651;45.508;12.232;2024-01-30T01:34:05;58.90;;;39.40;;
14007;SDS011;61651;45.508;12.232;2024-01-30T01:37:07;55.97;;;41.47;;
14007;SDS011;61651;45.508;12.232;2024-01-30T01:40:09;55.33;;;40.00;;
14007;SDS011;61651;45.508;12.232;2024-01-30T01:43:13;59.13;;;39.87;;
14007;SDS011;61651;45.508;12.232;2024-01-30T01:46:15;58.53;;;41.93;;
14007;SDS011;61651;45.508;12.232;2024-01-30T01:49:18;61.27;;;42.13;;
14007;SDS011;61651;45.508;12.232;2024-01-30T01:52:21;67.87;;;43.27;;
14007;SDS011;61651;45.508;12.232;2024-01-30T01:55:23;58.83;;;41.30;;
14007;SDS011;61651;45.508;12.232;2024-01-30T01:58:28;69.67;;;39.97;;
14007;SDS011;61651;45.508;12.232;2024-01-30T02:01:31;58.60;;;40.07;;
14007;SDS011;61651;45.508;12.232;2024-01-30T02:04:34;58.47;;;41.20;;
14007;SDS011;61651;45.508;12.232;2024-01-30T02:07:36;59.07;;;38.03;;
14007;SDS011;61651;45.508;12.232;2024-01-30T02:10:38;50.10;;;37.43;;
14007;SDS011;61651;45.508;12.232;2024-01-30T02:13:42;56.63;;;38.10;;
14007;SDS011;61651;45.508;12.232;2024-01-30T02:16:44;48.77;;;36.57;;
14007;SDS011;61651;45.508;12.232;2024-01-30T02:19:46;47.90;;;36.53;;
14007;SDS011;61651;45.508;12.232;2024-01-30T02:22:50;55.50;;;38.83;;
14007;SDS011;61651;45.508;12.232;2024-01-30T02:25:54;50.60;;;36.57;;
14007;SDS011;61651;45.508;12.232;2024-01-30T02:28:56;48.43;;;34.63;;
14007;SDS011;61651;45.508;12.232;2024-01-30T02:31:58;50.20;;;37.07;;
14007;SDS011;61651;45.508;12.232;2024-01-30T02:35:00;45.50;;;36.80;;
14007;SDS011;61651;45.508;12.232;2024-01-30T02:38:03;44.60;;;35.70;;
14007;SDS011;61651;45.508;12.232;2024-01-30T02:41:06;44.60;;;36.30;;
14007;SDS011;61651;45.508;12.232;2024-01-30T02:44:08;44.73;;;35.37;;
14007;SDS011;61651;45.508;12.232;2024-01-30T02:47:10;41.53;;;35.33;;
14007;SDS011;61651;45.508;12.232;2024-01-30T02:50:12;42.13;;;34.83;;
14007;SDS011;61651;45.508;12.232;2024-01-30T02:53:16;43.43;;;35.77;;
14007;SDS011;61651;45.508;12.232;2024-01-30T02:56:18;40.03;;;33.27;;
14007;SDS011;61651;45.508;12.232;2024-01-30T02:59:20;40.70;;;33.73;;
14007;SDS011;61651;45.508;12.232;2024-01-30T03:02:22;40.97;;;33.40;;
14007;SDS011;61651;45.508;12.232;2024-01-30T03:05:24;39.83;;;33.70;;
14007;SDS011;61651;45.508;12.232;2024-01-30T03:08:28;39.67;;;31.70;;
14007;SDS011;61651;45.508;12.232;2024-01-30T03:11:30;39.97;;;33.50;;
14007;SDS011;61651;45.508;12.232;2024-01-30T03:14:32;35.97;;;31.70;;
14007;SDS011;61651;45.508;12.232;2024-01-30T03:17:34;39.50;;;33.87;;
14007;SDS011;61651;45.508;12.232;2024-01-30T03:20:36;42.33;;;33.13;;
14007;SDS011;61651;45.508;12.232;2024-01-30T03:23:42;38.60;;;31.73;;
14007;SDS011;61651;45.508;12.232;2024-01-30T03:26:44;38.20;;;32.50;;
14007;SDS011;61651;45.508;12.232;2024-01-30T03:29:46;37.53;;;31.77;;
14007;SDS011;61651;45.508;12.232;2024-01-30T03:32:48;38.97;;;30.67;;
14007;SDS011;61651;45.508;12.232;2024-01-30T03:35:50;34.50;;;30.30;;
14007;SDS011;61651;45.508;12.232;2024-01-30T03:38:53;35.67;;;30.00;;
14007;SDS011;61651;45.508;12.232;2024-01-30T03:41:55;37.67;;;31.93;;
14007;SDS011;61651;45.508;12.232;2024-01-30T03:44:57;37.30;;;31.43;;
14007;SDS011;61651;45.508;12.232;2024-01-30T03:47:59;33.43;;;28.93;;
14007;SDS011;61651;45.508;12.232;2024-01-30T03:51:01;34.13;;;29.30;;
14007;SDS011;61651;45.508;12.232;2024-01-30T03:54:05;34.00;;;29.43;;
14007;SDS011;61651;45.508;12.232;2024-01-30T03:57:07;32.23;;;28.60;;
14007;SDS011;61651;45.508;12.232;2024-01-30T04:00:09;36.97;;;32.50;;
14007;SDS011;61651;45.508;12.232;2024-01-30T04:03:12;33.53;;;29.93;;
14007;SDS011;61651;45.508;12.232;2024-01-30T04:06:15;33.77;;;29.80;;
14007;SDS011;61651;45.508;12.232;2024-01-30T04:09:18;31.80;;;28.40;;
14007;SDS011;61651;45.508;12.232;2024-01-30T04:12:21;30.33;;;27.13;;
14007;SDS011;61651;45.508;12.232;2024-01-30T04:15:23;30.37;;;27.23;;
14007;SDS011;61651;45.508;12.232;2024-01-30T04:18:25;30.63;;;27.43;;
14007;SDS011;61651;45.508;12.232;2024-01-30T04:21:27;30.63;;;27.37;;
14007;SDS011;61651;45.508;12.232;2024-01-30T04:24:30;30.03;;;26.60;;
14007;SDS011;61651;45.508;12.232;2024-01-30T04:27:32;29.83;;;26.60;;
14007;SDS011;61651;45.508;12.232;2024-01-30T04:30:34;31.37;;;27.90;;
14007;SDS011;61651;45.508;12.232;2024-01-30T04:33:36;32.73;;;26.83;;
14007;SDS011;61651;45.508;12.232;2024-01-30T04:36:38;30.37;;;27.23;;
14007;SDS011;61651;45.508;12.232;2024-01-30T04:39:42;28.17;;;25.20;;
14007;SDS011;61651;45.508;12.232;2024-01-30T04:42:44;31.10;;;26.60;;
14007;SDS011;61651;45.508;12.232;2024-01-30T04:45:46;30.27;;;26.73;;
14007;SDS011;61651;45.508;12.232;2024-01-30T04:48:48;29.93;;;26.73;;
14007;SDS011;61651;45.508;12.232;2024-01-30T04:51:50;30.77;;;27.10;;
14007;SDS011;61651;45.508;12.232;2024-01-30T04:54:53;29.30;;;26.00;;
14007;SDS011;61651;45.508;12.232;2024-01-30T04:57:55;29.73;;;26.53;;
14007;SDS011;61651;45.508;12.232;2024-01-30T05:00:57;28.50;;;25.23;;
14007;SDS011;61651;45.508;12.232;2024-01-30T05:03:59;27.57;;;24.67;;
14007;SDS011;61651;45.508;12.232;2024-01-30T05:07:03;26.87;;;23.90;;
14007;SDS011;61651;45.508;12.232;2024-01-30T05:10:07;25.77;;;23.10;;
14007;SDS011;61651;45.508;12.232;2024-01-30T05:13:10;29.13;;;25.60;;
14007;SDS011;61651;45.508;12.232;2024-01-30T05:16:13;27.23;;;24.43;;
14007;SDS011;61651;45.508;12.232;2024-01-30T05:19:16;24.57;;;21.97;;
14007;SDS011;61651;45.508;12.232;2024-01-30T05:22:20;25.73;;;22.93;;
14007;SDS011;61651;45.508;12.232;2024-01-30T05:25:23;24.60;;;22.10;;
14007;SDS011;61651;45.508;12.232;2024-01-30T05:28:26;24.70;;;22.00;;
14007;SDS011;61651;45.508;12.232;2024-01-30T05:31:28;24.50;;;21.73;;
14007;SDS011;61651;45.508;12.232;2024-01-30T05:34:30;23.67;;;21.27;;
14007;SDS011;61651;45.508;12.232;2024-01-30T05:37:32;23.93;;;21.33;;
14007;SDS011;61651;45.508;12.232;2024-01-30T05:40:36;23.80;;;21.30;;
14007;SDS011;61651;45.508;12.232;2024-01-30T05:43:38;24.13;;;21.57;;
14007;SDS011;61651;45.508;12.232;2024-01-30T05:46:40;23.77;;;21.40;;
14007;SDS011;61651;45.508;12.232;2024-01-30T05:49:42;22.00;;;19.70;;
14007;SDS011;61651;45.508;12.232;2024-01-30T05:52:44;23.57;;;21.10;;
14007;SDS011;61651;45.508;12.232;2024-01-30T05:55:47;24.20;;;21.63;;
14007;SDS011;61651;45.508;12.232;2024-01-30T05:58:49;23.30;;;20.83;;
14007;SDS011;61651;45.508;12.232;2024-01-30T06:01:51;24.90;;;22.30;;
14007;SDS011;61651;45.508;12.232;2024-01-30T06:04:54;23.90;;;21.40;;
14007;SDS011;61651;45.508;12.232;2024-01-30T06:07:56;24.40;;;20.17;;
14007;SDS011;61651;45.508;12.232;2024-01-30T06:10:59;23.60;;;21.10;;
14007;SDS011;61651;45.508;12.232;2024-01-30T06:14:01;22.60;;;20.20;;
14007;SDS011;61651;45.508;12.232;2024-01-30T06:17:04;21.50;;;19.27;;
14007;SDS011;61651;45.508;12.232;2024-01-30T06:20:06;21.13;;;18.77;;
14007;SDS011;61651;45.508;12.232;2024-01-30T06:23:09;21.93;;;19.67;;
14007;SDS011;61651;45.508;12.232;2024-01-30T06:26:14;21.77;;;19.47;;
14007;SDS011;61651;45.508;12.232;2024-01-30T06:29:17;21.90;;;19.43;;
14007;SDS011;61651;45.508;12.232;2024-01-30T06:32:19;24.23;;;21.63;;
14007;SDS011;61651;45.508;12.232;2024-01-30T06:35:21;23.47;;;21.07;;
14007;SDS011;61651;45.508;12.232;2024-01-30T06:38:23;22.33;;;19.97;;
14007;SDS011;61651;45.508;12.232;2024-01-30T06:41:26;23.63;;;21.27;;
14007;SDS011;61651;45.508;12.232;2024-01-30T06:44:28;23.03;;;20.60;;
14007;SDS011;61651;45.508;12.232;2024-01-30T06:47:31;22.50;;;19.77;;
14007;SDS011;61651;45.508;12.232;2024-01-30T06:50:33;23.67;;;20.53;;
14007;SDS011;61651;45.508;12.232;2024-01-30T06:53:35;21.23;;;19.10;;
14007;SDS011;61651;45.508;12.232;2024-01-30T06:56:38;22.53;;;20.23;;
14007;SDS011;61651;45.508;12.232;2024-01-30T06:59:40;22.23;;;19.83;;
14007;SDS011;61651;45.508;12.232;2024-01-30T07:02:44;23.73;;;21.27;;
14007;SDS011;61651;45.508;12.232;2024-01-30T07:05:46;22.93;;;20.10;;
14007;SDS011;61651;45.508;12.232;2024-01-30T07:08:48;21.93;;;19.63;;
14007;SDS011;61651;45.508;12.232;2024-01-30T07:11:52;23.50;;;21.03;;
14007;SDS011;61651;45.508;12.232;2024-01-30T07:14:55;22.57;;;20.17;;
14007;SDS011;61651;45.508;12.232;2024-01-30T07:17:59;23.47;;;21.07;;
14007;SDS011;61651;45.508;12.232;2024-01-30T07:21:01;23.07;;;20.27;;
14007;SDS011;61651;45.508;12.232;2024-01-30T07:24:04;23.50;;;21.00;;
14007;SDS011;61651;45.508;12.232;2024-01-30T07:27:08;24.67;;;21.23;;
14007;SDS011;61651;45.508;12.232;2024-01-30T07:30:10;23.73;;;21.20;;
14007;SDS011;61651;45.508;12.232;2024-01-30T07:33:12;24.90;;;22.17;;
14007;SDS011;61651;45.508;12.232;2024-01-30T07:36:14;24.30;;;21.80;;
14007;SDS011;61651;45.508;12.232;2024-01-30T07:39:16;24.10;;;21.10;;
14007;SDS011;61651;45.508;12.232;2024-01-30T07:42:20;24.70;;;22.20;;
14007;SDS011;61651;45.508;12.232;2024-01-30T07:45:22;25.87;;;23.10;;
14007;SDS011;61651;45.508;12.232;2024-01-30T07:48:25;25.63;;;22.93;;
14007;SDS011;61651;45.508;12.232;2024-01-30T07:51:27;26.90;;;23.50;;
14007;SDS011;61651;45.508;12.232;2024-01-30T07:54:32;26.57;;;23.00;;
14007;SDS011;61651;45.508;12.232;2024-01-30T07:57:38;28.67;;;24.80;;
14007;SDS011;61651;45.508;12.232;2024-01-30T08:00:40;26.27;;;23.37;;
14007;SDS011;61651;45.508;12.232;2024-01-30T08:03:42;28.07;;;25.03;;
14007;SDS011;61651;45.508;12.232;2024-01-30T08:06:44;25.37;;;22.77;;
14007;SDS011;61651;45.508;12.232;2024-01-30T08:09:46;28.60;;;23.43;;
14007;SDS011;61651;45.508;12.232;2024-01-30T08:12:50;27.87;;;24.73;;
14007;SDS011;61651;45.508;12.232;2024-01-30T08:15:52;27.93;;;25.03;;
14007;SDS011;61651;45.508;12.232;2024-01-30T08:18:54;31.73;;;25.77;;
14007;SDS011;61651;45.508;12.232;2024-01-30T08:21:57;30.50;;;24.43;;
14007;SDS011;61651;45.508;12.232;2024-01-30T08:24:59;28.13;;;25.13;;
14007;SDS011;61651;45.508;12.232;2024-01-30T08:28:03;28.47;;;25.53;;
14007;SDS011;61651;45.508;12.232;2024-01-30T08:31:05;29.43;;;25.63;;
14007;SDS011;61651;45.508;12.232;2024-01-30T08:34:07;26.17;;;23.47;;
14007;SDS011;61651;45.508;12.232;2024-01-30T08:37:09;28.43;;;25.00;;
14007;SDS011;61651;45.508;12.232;2024-01-30T08:40:12;28.27;;;24.33;;
14007;SDS011;61651;45.508;12.232;2024-01-30T08:43:15;26.73;;;23.87;;
14007;SDS011;61651;45.508;12.232;2024-01-30T08:46:17;28.50;;;25.50;;
14007;SDS011;61651;45.508;12.232;2024-01-30T08:49:20;26.30;;;23.57;;
14007;SDS011;61651;45.508;12.232;2024-01-30T08:52:22;28.77;;;25.40;;
14007;SDS011;61651;45.508;12.232;2024-01-30T08:55:24;27.80;;;24.80;;
14007;SDS011;61651;45.508;12.232;2024-01-30T08:58:27;28.73;;;25.80;;
14007;SDS011;61651;45.508;12.232;2024-01-30T09:01:29;27.57;;;24.67;;
14007;SDS011;61651;45.508;12.232;2024-01-30T09:04:31;28.47;;;25.20;;
14007;SDS011;61651;45.508;12.232;2024-01-30T09:07:33;28.67;;;25.47;;
14007;SDS011;61651;45.508;12.232;2024-01-30T09:10:35;28.07;;;25.03;;
14007;SDS011;61651;45.508;12.232;2024-01-30T09:13:39;27.87;;;24.97;;
14007;SDS011;61651;45.508;12.232;2024-01-30T09:16:41;27.80;;;25.00;;
14007;SDS011;61651;45.508;12.232;2024-01-30T09:19:43;28.53;;;25.53;;
14007;SDS011;61651;45.508;12.232;2024-01-30T09:22:45;29.27;;;24.70;;
14007;SDS011;61651;45.508;12.232;2024-01-30T09:25:47;28.17;;;25.03;;
14007;SDS011;61651;45.508;12.232;2024-01-30T09:28:51;31.95;;;28.90;;
14007;SDS011;61651;45.508;12.232;2024-01-30T09:31:53;28.67;;;25.67;;
14007;SDS011;61651;45.508;12.232;2024-01-30T09:34:56;30.03;;;26.80;;
14007;SDS011;61651;45.508;12.232;2024-01-30T09:37:58;28.47;;;25.60;;
14007;SDS011;61651;45.508;12.232;2024-01-30T09:41:01;26.30;;;23.53;;
14007;SDS011;61651;45.508;12.232;2024-01-30T09:44:08;29.13;;;24.97;;
14007;SDS011;61651;45.508;12.232;2024-01-30T09:47:12;31.92;;;28.85;;
14007;SDS011;61651;45.508;12.232;2024-01-30T09:50:16;26.83;;;23.93;;
14007;SDS011;61651;45.508;12.232;2024-01-30T09:53:19;27.30;;;24.43;;
14007;SDS011;61651;45.508;12.232;2024-01-30T09:56:23;28.10;;;23.87;;
14007;SDS011;61651;45.508;12.232;2024-01-30T09:59:26;28.90;;;25.87;;
14007;SDS011;61651;45.508;12.232;2024-01-30T10:02:28;27.33;;;24.57;;
14007;SDS011;61651;45.508;12.232;2024-01-30T10:05:31;27.87;;;25.10;;
14007;SDS011;61651;45.508;12.232;2024-01-30T10:08:34;28.80;;;25.93;;
14007;SDS011;61651;45.508;12.232;2024-01-30T10:11:36;32.33;;;24.90;;
14007;SDS011;61651;45.508;12.232;2024-01-30T10:14:40;26.63;;;23.97;;
14007;SDS011;61651;45.508;12.232;2024-01-30T10:17:43;28.83;;;25.43;;
14007;SDS011;61651;45.508;12.232;2024-01-30T10:20:46;32.47;;;29.38;;
14007;SDS011;61651;45.508;12.232;2024-01-30T10:23:48;26.93;;;24.13;;
14007;SDS011;61651;45.508;12.232;2024-01-30T10:26:51;26.20;;;23.40;;
14007;SDS011;61651;45.508;12.232;2024-01-30T10:29:55;28.77;;;25.43;;
14007;SDS011;61651;45.508;12.232;2024-01-30T10:32:57;29.30;;;26.48;;
14007;SDS011;61651;45.508;12.232;2024-01-30T10:36:00;30.83;;;24.50;;
14007;SDS011;61651;45.508;12.232;2024-01-30T10:39:03;27.53;;;24.57;;
14007;SDS011;61651;45.508;12.232;2024-01-30T10:42:10;27.83;;;24.97;;
14007;SDS011;61651;45.508;12.232;2024-01-30T10:45:15;28.47;;;25.30;;
14007;SDS011;61651;45.508;12.232;2024-01-30T10:48:17;30.05;;;27.25;;
14007;SDS011;61651;45.508;12.232;2024-01-30T10:51:23;28.10;;;25.30;;
14007;SDS011;61651;45.508;12.232;2024-01-30T10:54:26;28.37;;;25.50;;
14007;SDS011;61651;45.508;12.232;2024-01-30T10:57:30;28.50;;;25.53;;
14007;SDS011;61651;45.508;12.232;2024-01-30T11:00:36;28.43;;;25.07;;
14007;SDS011;61651;45.508;12.232;2024-01-30T11:03:39;27.90;;;25.07;;
14007;SDS011;61651;45.508;12.232;2024-01-30T11:06:41;29.03;;;26.03;;
14007;SDS011;61651;45.508;12.232;2024-01-30T11:09:50;26.90;;;24.13;;
14007;SDS011;61651;45.508;12.232;2024-01-30T11:12:52;27.87;;;24.83;;
14007;SDS011;61651;45.508;12.232;2024-01-30T11:15:55;26.20;;;23.60;;
14007;SDS011;61651;45.508;12.232;2024-01-30T11:19:01;26.40;;;23.80;;
14007;SDS011;61651;45.508;12.232;2024-01-30T11:22:03;25.27;;;22.83;;
14007;SDS011;61651;45.508;12.232;2024-01-30T11:25:10;24.30;;;22.00;;
14007;SDS011;61651;45.508;12.232;2024-01-30T11:28:13;24.60;;;22.20;;
14007;SDS011;61651;45.508;12.232;2024-01-30T11:31:19;26.13;;;23.03;;
14007;SDS011;61651;45.508;12.232;2024-01-30T11:34:21;23.77;;;21.37;;
14007;SDS011;61651;45.508;12.232;2024-01-30T11:37:24;23.27;;;20.87;;
14007;SDS011;61651;45.508;12.232;2024-01-30T11:40:27;24.53;;;22.03;;
14007;SDS011;61651;45.508;12.232;2024-01-30T11:43:30;26.97;;;22.47;;
14007;SDS011;61651;45.508;12.232;2024-01-30T11:46:35;26.07;;;23.37;;
14007;SDS011;61651;45.508;12.232;2024-01-30T11:49:37;25.20;;;22.63;;
14007;SDS011;61651;45.508;12.232;2024-01-30T11:52:39;23.60;;;21.27;;
14007;SDS011;61651;45.508;12.232;2024-01-30T11:55:41;22.23;;;19.93;;
14007;SDS011;61651;45.508;12.232;2024-01-30T11:58:43;22.33;;;20.03;;
14007;SDS011;61651;45.508;12.232;2024-01-30T12:01:46;21.60;;;18.40;;
14007;SDS011;61651;45.508;12.232;2024-01-30T12:04:49;23.87;;;21.40;;
14007;SDS011;61651;45.508;12.232;2024-01-30T12:07:51;24.13;;;21.60;;
14007;SDS011;61651;45.508;12.232;2024-01-30T12:10:56;24.33;;;21.80;;
14007;SDS011;61651;45.508;12.232;2024-01-30T12:14:01;22.67;;;20.10;;
14007;SDS011;61651;45.508;12.232;2024-01-30T12:17:04;20.33;;;18.17;;
14007;SDS011;61651;45.508;12.232;2024-01-30T12:20:08;23.20;;;20.83;;
14007;SDS011;61651;45.508;12.232;2024-01-30T12:23:11;21.90;;;19.63;;
14007;SDS011;61651;45.508;12.232;2024-01-30T12:26:14;22.40;;;20.10;;
14007;SDS011;61651;45.508;12.232;2024-01-30T12:29:16;21.70;;;19.07;;
14007;SDS011;61651;45.508;12.232;2024-01-30T12:32:19;22.90;;;19.77;;
14007;SDS011;61651;45.508;12.232;2024-01-30T12:35:24;21.90;;;19.47;;
14007;SDS011;61651;45.508;12.232;2024-01-30T12:38:26;21.23;;;19.03;;
14007;SDS011;61651;45.508;12.232;2024-01-30T12:41:28;21.33;;;19.00;;
14007;SDS011;61651;45.508;12.232;2024-01-30T12:44:32;20.90;;;18.70;;
14007;SDS011;61651;45.508;12.232;2024-01-30T12:47:35;23.13;;;19.97;;
14007;SDS011;61651;45.508;12.232;2024-01-30T12:50:37;21.40;;;19.10;;
14007;SDS011;61651;45.508;12.232;2024-01-30T12:53:39;23.23;;;20.83;;
14007;SDS011;61651;45.508;12.232;2024-01-30T12:56:41;20.20;;;18.10;;
14007;SDS011;61651;45.508;12.232;2024-01-30T12:59:44;20.87;;;18.07;;
14007;SDS011;61651;45.508;12.232;2024-01-30T13:02:48;20.27;;;18.07;;
14007;SDS011;61651;45.508;12.232;2024-01-30T13:05:50;21.13;;;19.00;;
14007;SDS011;61651;45.508;12.232;2024-01-30T13:08:52;20.13;;;18.00;;
14007;SDS011;61651;45.508;12.232;2024-01-30T13:11:54;22.07;;;18.03;;
14007;SDS011;61651;45.508;12.232;2024-01-30T13:14:56;20.60;;;18.60;;
14007;SDS011;61651;45.508;12.232;2024-01-30T13:18:02;20.77;;;18.57;;
14007;SDS011;61651;45.508;12.232;2024-01-30T13:21:05;19.77;;;17.77;;
14007;SDS011;61651;45.508;12.232;2024-01-30T13:24:07;19.73;;;17.73;;
14007;SDS011;61651;45.508;12.232;2024-01-30T13:27:09;21.83;;;19.65;;
14007;SDS011;61651;45.508;12.232;2024-01-30T13:30:11;22.67;;;20.27;;
14007;SDS011;61651;45.508;12.232;2024-01-30T13:33:15;22.43;;;20.03;;
14007;SDS011;61651;45.508;12.232;2024-01-30T13:36:17;22.57;;;19.90;;
14007;SDS011;61651;45.508;12.232;2024-01-30T13:39:19;20.73;;;18.63;;
14007;SDS011;61651;45.508;12.232;2024-01-30T13:42:21;22.23;;;19.85;;
14007;SDS011;61651;45.508;12.232;2024-01-30T13:45:24;21.50;;;19.20;;
14007;SDS011;61651;45.508;12.232;2024-01-30T13:48:27;25.40;;;18.57;;
14007;SDS011;61651;45.508;12.232;2024-01-30T13:51:29;21.58;;;19.17;;
14007;SDS011;61651;45.508;12.232;2024-01-30T13:54:32;21.17;;;18.97;;
14007;SDS011;61651;45.508;12.232;2024-01-30T13:57:34;22.75;;;18.42;;
14007;SDS011;61651;45.508;12.232;2024-01-30T14:00:36;19.95;;;17.83;;
14007;SDS011;61651;45.508;12.232;2024-01-30T14:03:40;18.50;;;16.60;;
14007;SDS011;61651;45.508;12.232;2024-01-30T14:06:42;21.25;;;17.92;;
14007;SDS011;61651;45.508;12.232;2024-01-30T14:09:44;20.17;;;18.10;;
14007;SDS011;61651;45.508;12.232;2024-01-30T14:12:46;22.70;;;20.50;;
14007;SDS011;61651;45.508;12.232;2024-01-30T14:15:49;21.27;;;19.08;;
14007;SDS011;61651;45.508;12.232;2024-01-30T14:18:52;20.80;;;18.60;;
14007;SDS011;61651;45.508;12.232;2024-01-30T14:21:54;22.15;;;19.58;;
14007;SDS011;61651;45.508;12.232;2024-01-30T14:24:56;25.45;;;22.50;;
14007;SDS011;61651;45.508;12.232;2024-01-30T14:27:58;24.48;;;20.15;;
14007;SDS011;61651;45.508;12.232;2024-01-30T14:31:00;23.38;;;20.67;;
14007;SDS011;61651;45.508;12.232;2024-01-30T14:34:04;24.15;;;20.88;;
14007;SDS011;61651;45.508;12.232;2024-01-30T14:37:06;21.63;;;19.33;;
14007;SDS011;61651;45.508;12.232;2024-01-30T14:40:08;21.60;;;19.38;;
14007;SDS011;61651;45.508;12.232;2024-01-30T14:43:10;20.13;;;18.13;;
14007;SDS011;61651;45.508;12.232;2024-01-30T14:46:14;20.50;;;17.05;;
14007;SDS011;61651;45.508;12.232;2024-01-30T14:49:18;18.70;;;16.58;;
14007;SDS011;61651;45.508;12.232;2024-01-30T14:52:21;22.58;;;18.38;;
14007;SDS011;61651;45.508;12.232;2024-01-30T14:55:23;20.23;;;18.30;;
14007;SDS011;61651;45.508;12.232;2024-01-30T14:58:25;22.67;;;20.48;;
14007;SDS011;61651;45.508;12.232;2024-01-30T15:01:27;20.05;;;18.08;;
14007;SDS011;61651;45.508;12.232;2024-01-30T15:04:30;20.30;;;18.08;;
14007;SDS011;61651;45.508;12.232;2024-01-30T15:07:32;25.33;;;20.67;;
14007;SDS011;61651;45.508;12.232;2024-01-30T15:10:36;23.83;;;21.27;;
14007;SDS011;61651;45.508;12.232;2024-01-30T15:13:38;29.27;;;22.98;;
14007;SDS011;61651;45.508;12.232;2024-01-30T15:16:40;26.13;;;23.48;;
14007;SDS011;61651;45.508;12.232;2024-01-30T15:19:44;25.40;;;22.83;;
14007;SDS011;61651;45.508;12.232;2024-01-30T15:22:46;28.73;;;24.17;;
14007;SDS011;61651;45.508;12.232;2024-01-30T15:25:48;28.15;;;25.33;;
14007;SDS011;61651;45.508;12.232;2024-01-30T15:28:50;28.40;;;25.50;;
14007;SDS011;61651;45.508;12.232;2024-01-30T15:31:53;29.92;;;26.88;;
14007;SDS011;61651;45.508;12.232;2024-01-30T15:34:56;31.65;;;26.02;;
14007;SDS011;61651;45.508;12.232;2024-01-30T15:38:01;28.02;;;24.90;;
14007;SDS011;61651;45.508;12.232;2024-01-30T15:41:03;28.55;;;25.73;;
14007;SDS011;61651;45.508;12.232;2024-01-30T15:44:05;28.67;;;25.80;;
14007;SDS011;61651;45.508;12.232;2024-01-30T15:47:07;27.77;;;24.90;;
14007;SDS011;61651;45.508;12.232;2024-01-30T15:50:12;27.88;;;25.08;;
14007;SDS011;61651;45.508;12.232;2024-01-30T15:53:14;28.35;;;25.27;;
14007;SDS011;61651;45.508;12.232;2024-01-30T15:56:16;28.48;;;25.52;;
14007;SDS011;61651;45.508;12.232;2024-01-30T15:59:18;28.05;;;25.20;;
14007;SDS011;61651;45.508;12.232;2024-01-30T16:02:20;28.25;;;24.27;;
14007;SDS011;61651;45.508;12.232;2024-01-30T16:05:24;31.98;;;25.02;;
14007;SDS011;61651;45.508;12.232;2024-01-30T16:08:26;28.15;;;25.08;;
14007;SDS011;61651;45.508;12.232;2024-01-30T16:11:28;29.17;;;24.80;;
14007;SDS011;61651;45.508;12.232;2024-01-30T16:14:32;28.42;;;24.55;;
14007;SDS011;61651;45.508;12.232;2024-01-30T16:17:36;30.53;;;25.30;;
14007;SDS011;61651;45.508;12.232;2024-01-30T16:20:39;28.93;;;26.00;;
14007;SDS011;61651;45.508;12.232;2024-01-30T16:23:41;28.07;;;25.17;;
14007;SDS011;61651;45.508;12.232;2024-01-30T16:26:43;29.33;;;25.00;;
14007;SDS011;61651;45.508;12.232;2024-01-30T16:29:45;29.90;;;24.53;;
14007;SDS011;61651;45.508;12.232;2024-01-30T16:32:48;32.33;;;28.50;;
14007;SDS011;61651;45.508;12.232;2024-01-30T16:35:54;36.90;;;30.40;;
14007;SDS011;61651;45.508;12.232;2024-01-30T16:38:56;30.10;;;26.93;;
14007;SDS011;61651;45.508;12.232;2024-01-30T16:41:58;30.17;;;26.60;;
14007;SDS011;61651;45.508;12.232;2024-01-30T16:45:00;30.43;;;27.07;;
14007;SDS011;61651;45.508;12.232;2024-01-30T16:48:03;31.33;;;27.07;;
14007;SDS011;61651;45.508;12.232;2024-01-30T16:51:07;31.83;;;28.40;;
14007;SDS011;61651;45.508;12.232;2024-01-30T16:54:09;33.07;;;28.03;;
14007;SDS011;61651;45.508;12.232;2024-01-30T16:57:11;30.70;;;27.20;;
14007;SDS011;61651;45.508;12.232;2024-01-30T17:00:13;33.70;;;28.03;;
14007;SDS011;61651;45.508;12.232;2024-01-30T17:03:16;35.13;;;31.30;;
14007;SDS011;61651;45.508;12.232;2024-01-30T17:06:19;34.83;;;31.07;;
14007;SDS011;61651;45.508;12.232;2024-01-30T17:09:21;33.63;;;30.07;;
14007;SDS011;61651;45.508;12.232;2024-01-30T17:12:23;34.27;;;30.53;;
14007;SDS011;61651;45.508;12.232;2024-01-30T17:15:25;34.47;;;30.77;;
14007;SDS011;61651;45.508;12.232;2024-01-30T17:18:27;34.40;;;30.70;;
14007;SDS011;61651;45.508;12.232;2024-01-30T17:21:31;35.87;;;32.07;;
14007;SDS011;61651;45.508;12.232;2024-01-30T17:24:34;35.67;;;30.80;;
14007;SDS011;61651;45.508;12.232;2024-01-30T17:27:36;36.90;;;31.37;;
14007;SDS011;61651;45.508;12.232;2024-01-30T17:30:38;36.53;;;32.73;;
14007;SDS011;61651;45.508;12.232;2024-01-30T17:33:40;38.50;;;31.63;;